sensor_id;sensor_type;location;lat;lon;timestamp;P1;durP1;ratioP1;P2;durP2;ratioP2
11531;SDS011;5822;51.000;5.874;2023-03-31T00:01:58;13.60;;;12.80;;
11531;SDS011;5822;51.000;5.874;2023-03-31T00:04:25;13.50;;;12.70;;
11531;SDS011;5822;51.000;5.874;2023-03-31T00:06:52;13.35;;;12.63;;
11531;SDS011;5822;51.000;5.874;2023-03-31T00:09:18;13.27;;;12.57;;
11531;SDS011;5822;51.000;5.874;2023-03-31T00:11:46;14.10;;;13.30;;
11531;SDS011;5822;51.000;5.874;2023-03-31T00:14:12;14.77;;;13.97;;
11531;SDS011;5822;51.000;5.874;2023-03-31T00:16:39;13.90;;;13.10;;
11531;SDS011;5822;51.000;5.874;2023-03-31T00:19:05;13.83;;;13.00;;
11531;SDS011;5822;51.000;5.874;2023-03-31T00:21:33;13.80;;;13.00;;
11531;SDS011;5822;51.000;5.874;2023-03-31T00:24:04;13.38;;;12.68;;
11531;SDS011;5822;51.000;5.874;2023-03-31T00:26:31;13.50;;;12.70;;
11531;SDS011;5822;51.000;5.874;2023-03-31T00:28:58;13.60;;;12.80;;
11531;SDS011;5822;51.000;5.874;2023-03-31T00:31:24;13.43;;;12.67;;
11531;SDS011;5822;51.000;5.874;2023-03-31T00:33:53;13.88;;;13.10;;
11531;SDS011;5822;51.000;5.874;2023-03-31T00:36:19;13.95;;;13.07;;
11531;SDS011;5822;51.000;5.874;2023-03-31T00:38:51;14.00;;;13.20;;
11531;SDS011;5822;51.000;5.874;2023-03-31T00:41:17;14.20;;;13.40;;
11531;SDS011;5822;51.000;5.874;2023-03-31T00:46:34;13.90;;;13.10;;
11531;SDS011;5822;51.000;5.874;2023-03-31T00:49:11;13.68;;;12.88;;
11531;SDS011;5822;51.000;5.874;2023-03-31T00:51:44;13.70;;;12.90;;
11531;SDS011;5822;51.000;5.874;2023-03-31T00:54:12;13.90;;;13.10;;
11531;SDS011;5822;51.000;5.874;2023-03-31T00:56:40;13.68;;;12.88;;
11531;SDS011;5822;51.000;5.874;2023-03-31T00:59:10;14.13;;;13.23;;
11531;SDS011;5822;51.000;5.874;2023-03-31T01:01:37;13.75;;;12.95;;
11531;SDS011;5822;51.000;5.874;2023-03-31T01:04:06;13.88;;;13.07;;
11531;SDS011;5822;51.000;5.874;2023-03-31T01:06:35;13.77;;;12.97;;
11531;SDS011;5822;51.000;5.874;2023-03-31T01:09:06;14.00;;;13.10;;
11531;SDS011;5822;51.000;5.874;2023-03-31T01:11:32;14.10;;;13.20;;
11531;SDS011;5822;51.000;5.874;2023-03-31T01:13:59;13.70;;;12.90;;
11531;SDS011;5822;51.000;5.874;2023-03-31T01:16:27;14.00;;;13.20;;
11531;SDS011;5822;51.000;5.874;2023-03-31T01:18:52;14.50;;;13.50;;
11531;SDS011;5822;51.000;5.874;2023-03-31T01:29:09;13.70;;;12.90;;
11531;SDS011;5822;51.000;5.874;2023-03-31T01:48:00;14.03;;;13.13;;
11531;SDS011;5822;51.000;5.874;2023-03-31T01:56:30;13.95;;;13.05;;
11531;SDS011;5822;51.000;5.874;2023-03-31T01:59:01;14.48;;;13.55;;
11531;SDS011;5822;51.000;5.874;2023-03-31T02:04:10;14.50;;;13.50;;
11531;SDS011;5822;51.000;5.874;2023-03-31T02:06:42;13.30;;;12.60;;
11531;SDS011;5822;51.000;5.874;2023-03-31T02:09:16;13.40;;;12.60;;
11531;SDS011;5822;51.000;5.874;2023-03-31T02:11:52;13.40;;;12.60;;
11531;SDS011;5822;51.000;5.874;2023-03-31T02:14:21;13.30;;;12.50;;
11531;SDS011;5822;51.000;5.874;2023-03-31T02:16:51;13.60;;;12.80;;
11531;SDS011;5822;51.000;5.874;2023-03-31T02:19:22;13.88;;;12.98;;
11531;SDS011;5822;51.000;5.874;2023-03-31T02:21:51;13.65;;;12.85;;
11531;SDS011;5822;51.000;5.874;2023-03-31T02:24:19;13.73;;;12.93;;
11531;SDS011;5822;51.000;5.874;2023-03-31T02:26:51;14.20;;;13.30;;
11531;SDS011;5822;51.000;5.874;2023-03-31T02:29:21;13.80;;;12.90;;
11531;SDS011;5822;51.000;5.874;2023-03-31T02:34:56;13.30;;;12.60;;
11531;SDS011;5822;51.000;5.874;2023-03-31T02:37:23;13.30;;;12.60;;
11531;SDS011;5822;51.000;5.874;2023-03-31T02:39:51;13.85;;;13.02;;
11531;SDS011;5822;51.000;5.874;2023-03-31T02:42:19;13.80;;;13.00;;
11531;SDS011;5822;51.000;5.874;2023-03-31T02:44:46;13.68;;;12.88;;
11531;SDS011;5822;51.000;5.874;2023-03-31T02:47:12;13.57;;;12.77;;
11531;SDS011;5822;51.000;5.874;2023-03-31T02:49:43;13.32;;;12.60;;
11531;SDS011;5822;51.000;5.874;2023-03-31T02:58:05;13.70;;;12.90;;
11531;SDS011;5822;51.000;5.874;2023-03-31T03:03:41;14.10;;;13.20;;
11531;SDS011;5822;51.000;5.874;2023-03-31T03:14:31;14.00;;;13.07;;
11531;SDS011;5822;51.000;5.874;2023-03-31T03:17:09;13.77;;;12.93;;
11531;SDS011;5822;51.000;5.874;2023-03-31T03:19:41;13.95;;;13.05;;
11531;SDS011;5822;51.000;5.874;2023-03-31T03:22:07;13.75;;;12.95;;
11531;SDS011;5822;51.000;5.874;2023-03-31T03:24:33;13.70;;;12.90;;
11531;SDS011;5822;51.000;5.874;2023-03-31T03:26:59;13.70;;;12.90;;
11531;SDS011;5822;51.000;5.874;2023-03-31T03:29:25;13.80;;;13.00;;
11531;SDS011;5822;51.000;5.874;2023-03-31T03:31:51;13.60;;;12.80;;
11531;SDS011;5822;51.000;5.874;2023-03-31T03:34:17;13.80;;;13.00;;
11531;SDS011;5822;51.000;5.874;2023-03-31T03:36:44;13.60;;;12.88;;
11531;SDS011;5822;51.000;5.874;2023-03-31T03:39:11;14.37;;;13.47;;
11531;SDS011;5822;51.000;5.874;2023-03-31T03:41:37;14.40;;;13.50;;
11531;SDS011;5822;51.000;5.874;2023-03-31T03:44:02;13.95;;;13.15;;
11531;SDS011;5822;51.000;5.874;2023-03-31T03:46:28;14.13;;;13.32;;
11531;SDS011;5822;51.000;5.874;2023-03-31T03:48:54;13.90;;;13.10;;
11531;SDS011;5822;51.000;5.874;2023-03-31T03:51:20;14.15;;;13.35;;
11531;SDS011;5822;51.000;5.874;2023-03-31T03:53:46;14.10;;;13.30;;
11531;SDS011;5822;51.000;5.874;2023-03-31T03:56:12;14.10;;;13.30;;
11531;SDS011;5822;51.000;5.874;2023-03-31T03:58:37;14.25;;;13.45;;
11531;SDS011;5822;51.000;5.874;2023-03-31T04:01:03;14.05;;;13.30;;
11531;SDS011;5822;51.000;5.874;2023-03-31T04:03:29;14.40;;;13.60;;
11531;SDS011;5822;51.000;5.874;2023-03-31T04:05:55;14.60;;;13.70;;
11531;SDS011;5822;51.000;5.874;2023-03-31T04:08:21;14.30;;;13.50;;
11531;SDS011;5822;51.000;5.874;2023-03-31T04:10:47;14.20;;;13.40;;
11531;SDS011;5822;51.000;5.874;2023-03-31T04:13:14;14.38;;;13.57;;
11531;SDS011;5822;51.000;5.874;2023-03-31T04:15:41;14.30;;;13.50;;
11531;SDS011;5822;51.000;5.874;2023-03-31T04:18:07;14.50;;;13.70;;
11531;SDS011;5822;51.000;5.874;2023-03-31T04:20:35;14.50;;;13.70;;
11531;SDS011;5822;51.000;5.874;2023-03-31T04:23:02;14.50;;;13.70;;
11531;SDS011;5822;51.000;5.874;2023-03-31T04:25:29;15.00;;;14.10;;
11531;SDS011;5822;51.000;5.874;2023-03-31T04:27:55;14.40;;;13.60;;
11531;SDS011;5822;51.000;5.874;2023-03-31T04:30:25;14.60;;;13.80;;
11531;SDS011;5822;51.000;5.874;2023-03-31T04:32:58;14.70;;;13.90;;
11531;SDS011;5822;51.000;5.874;2023-03-31T04:35:26;14.90;;;14.00;;
11531;SDS011;5822;51.000;5.874;2023-03-31T04:38:13;14.60;;;13.80;;
11531;SDS011;5822;51.000;5.874;2023-03-31T04:40:50;14.77;;;13.98;;
11531;SDS011;5822;51.000;5.874;2023-03-31T04:43:17;14.90;;;14.00;;
11531;SDS011;5822;51.000;5.874;2023-03-31T04:45:44;14.95;;;14.05;;
11531;SDS011;5822;51.000;5.874;2023-03-31T04:48:10;14.82;;;13.93;;
11531;SDS011;5822;51.000;5.874;2023-03-31T04:50:36;15.13;;;14.13;;
11531;SDS011;5822;51.000;5.874;2023-03-31T04:53:02;15.38;;;14.38;;
11531;SDS011;5822;51.000;5.874;2023-03-31T04:55:29;15.00;;;14.10;;
11531;SDS011;5822;51.000;5.874;2023-03-31T04:57:55;15.00;;;14.10;;
11531;SDS011;5822;51.000;5.874;2023-03-31T05:00:20;15.10;;;14.20;;
11531;SDS011;5822;51.000;5.874;2023-03-31T05:02:46;14.88;;;13.98;;
11531;SDS011;5822;51.000;5.874;2023-03-31T05:05:12;14.60;;;13.80;;
11531;SDS011;5822;51.000;5.874;2023-03-31T05:07:38;14.95;;;14.07;;
11531;SDS011;5822;51.000;5.874;2023-03-31T05:10:04;15.50;;;14.50;;
11531;SDS011;5822;51.000;5.874;2023-03-31T05:12:34;14.98;;;14.07;;
11531;SDS011;5822;51.000;5.874;2023-03-31T05:15:01;15.07;;;14.17;;
11531;SDS011;5822;51.000;5.874;2023-03-31T05:17:30;14.50;;;13.70;;
11531;SDS011;5822;51.000;5.874;2023-03-31T05:19:57;14.90;;;14.00;;
11531;SDS011;5822;51.000;5.874;2023-03-31T05:22:23;15.00;;;14.10;;
11531;SDS011;5822;51.000;5.874;2023-03-31T05:24:49;14.38;;;13.57;;
11531;SDS011;5822;51.000;5.874;2023-03-31T05:27:15;14.50;;;13.70;;
11531;SDS011;5822;51.000;5.874;2023-03-31T05:29:41;15.10;;;14.20;;
11531;SDS011;5822;51.000;5.874;2023-03-31T05:32:06;15.00;;;14.10;;
11531;SDS011;5822;51.000;5.874;2023-03-31T05:34:32;15.20;;;14.32;;
11531;SDS011;5822;51.000;5.874;2023-03-31T05:36:58;15.15;;;14.25;;
11531;SDS011;5822;51.000;5.874;2023-03-31T05:39:23;14.60;;;13.80;;
11531;SDS011;5822;51.000;5.874;2023-03-31T05:41:49;14.98;;;14.07;;
11531;SDS011;5822;51.000;5.874;2023-03-31T05:44:15;15.23;;;14.32;;
11531;SDS011;5822;51.000;5.874;2023-03-31T05:46:41;15.20;;;14.30;;
11531;SDS011;5822;51.000;5.874;2023-03-31T05:49:07;15.15;;;14.25;;
11531;SDS011;5822;51.000;5.874;2023-03-31T05:51:33;15.68;;;14.70;;
11531;SDS011;5822;51.000;5.874;2023-03-31T05:53:58;15.50;;;14.57;;
11531;SDS011;5822;51.000;5.874;2023-03-31T05:56:24;15.50;;;14.60;;
11531;SDS011;5822;51.000;5.874;2023-03-31T05:58:51;15.60;;;14.70;;
11531;SDS011;5822;51.000;5.874;2023-03-31T06:01:17;15.10;;;14.20;;
11531;SDS011;5822;51.000;5.874;2023-03-31T06:03:47;15.00;;;14.10;;
11531;SDS011;5822;51.000;5.874;2023-03-31T06:06:13;15.30;;;14.40;;
11531;SDS011;5822;51.000;5.874;2023-03-31T06:08:40;15.50;;;14.60;;
11531;SDS011;5822;51.000;5.874;2023-03-31T06:11:07;15.88;;;14.95;;
11531;SDS011;5822;51.000;5.874;2023-03-31T06:13:37;16.05;;;15.05;;
11531;SDS011;5822;51.000;5.874;2023-03-31T06:16:05;16.20;;;15.30;;
11531;SDS011;5822;51.000;5.874;2023-03-31T06:18:31;17.23;;;16.33;;
11531;SDS011;5822;51.000;5.874;2023-03-31T06:20:58;15.60;;;14.70;;
11531;SDS011;5822;51.000;5.874;2023-03-31T06:23:24;15.73;;;14.82;;
11531;SDS011;5822;51.000;5.874;2023-03-31T06:25:51;15.32;;;14.43;;
11531;SDS011;5822;51.000;5.874;2023-03-31T06:28:17;14.70;;;13.90;;
11531;SDS011;5822;51.000;5.874;2023-03-31T06:30:43;15.38;;;14.48;;
11531;SDS011;5822;51.000;5.874;2023-03-31T06:33:09;15.10;;;14.20;;
11531;SDS011;5822;51.000;5.874;2023-03-31T06:35:38;14.97;;;14.17;;
11531;SDS011;5822;51.000;5.874;2023-03-31T06:38:05;15.65;;;14.65;;
11531;SDS011;5822;51.000;5.874;2023-03-31T06:40:31;15.30;;;14.40;;
11531;SDS011;5822;51.000;5.874;2023-03-31T06:42:57;15.00;;;14.10;;
11531;SDS011;5822;51.000;5.874;2023-03-31T06:45:23;15.20;;;14.30;;
11531;SDS011;5822;51.000;5.874;2023-03-31T06:47:49;14.93;;;14.13;;
11531;SDS011;5822;51.000;5.874;2023-03-31T06:50:14;15.00;;;14.20;;
11531;SDS011;5822;51.000;5.874;2023-03-31T06:52:40;14.80;;;14.00;;
11531;SDS011;5822;51.000;5.874;2023-03-31T06:55:06;15.10;;;14.20;;
11531;SDS011;5822;51.000;5.874;2023-03-31T06:57:37;16.08;;;15.07;;
11531;SDS011;5822;51.000;5.874;2023-03-31T07:00:03;15.53;;;14.63;;
11531;SDS011;5822;51.000;5.874;2023-03-31T07:02:29;15.13;;;14.30;;
11531;SDS011;5822;51.000;5.874;2023-03-31T07:04:55;14.67;;;13.77;;
11531;SDS011;5822;51.000;5.874;2023-03-31T07:07:21;14.90;;;14.00;;
11531;SDS011;5822;51.000;5.874;2023-03-31T07:09:46;15.00;;;14.10;;
11531;SDS011;5822;51.000;5.874;2023-03-31T07:12:12;15.25;;;14.25;;
11531;SDS011;5822;51.000;5.874;2023-03-31T07:14:38;14.98;;;14.07;;
11531;SDS011;5822;51.000;5.874;2023-03-31T07:17:03;15.27;;;14.38;;
11531;SDS011;5822;51.000;5.874;2023-03-31T07:19:29;14.63;;;13.80;;
11531;SDS011;5822;51.000;5.874;2023-03-31T07:21:55;15.07;;;14.18;;
11531;SDS011;5822;51.000;5.874;2023-03-31T07:24:21;14.52;;;13.70;;
11531;SDS011;5822;51.000;5.874;2023-03-31T07:26:47;14.77;;;13.80;;
11531;SDS011;5822;51.000;5.874;2023-03-31T07:29:12;15.25;;;14.25;;
11531;SDS011;5822;51.000;5.874;2023-03-31T07:31:38;15.38;;;14.40;;
11531;SDS011;5822;51.000;5.874;2023-03-31T07:34:06;15.13;;;14.23;;
11531;SDS011;5822;51.000;5.874;2023-03-31T07:36:32;14.60;;;13.80;;
11531;SDS011;5822;51.000;5.874;2023-03-31T07:38:58;14.88;;;13.98;;
11531;SDS011;5822;51.000;5.874;2023-03-31T07:41:23;14.90;;;14.00;;
11531;SDS011;5822;51.000;5.874;2023-03-31T07:43:50;15.48;;;14.48;;
11531;SDS011;5822;51.000;5.874;2023-03-31T07:46:17;15.67;;;14.57;;
11531;SDS011;5822;51.000;5.874;2023-03-31T07:48:50;15.27;;;14.35;;
11531;SDS011;5822;51.000;5.874;2023-03-31T07:51:20;15.00;;;14.07;;
11531;SDS011;5822;51.000;5.874;2023-03-31T07:53:48;15.45;;;14.45;;
11531;SDS011;5822;51.000;5.874;2023-03-31T07:56:16;14.80;;;13.90;;
11531;SDS011;5822;51.000;5.874;2023-03-31T07:58:42;15.82;;;14.73;;
11531;SDS011;5822;51.000;5.874;2023-03-31T08:01:08;15.55;;;14.55;;
11531;SDS011;5822;51.000;5.874;2023-03-31T08:03:36;14.90;;;14.00;;
11531;SDS011;5822;51.000;5.874;2023-03-31T08:06:01;15.10;;;14.20;;
11531;SDS011;5822;51.000;5.874;2023-03-31T08:08:27;15.45;;;14.35;;
11531;SDS011;5822;51.000;5.874;2023-03-31T08:10:53;15.70;;;14.70;;
11531;SDS011;5822;51.000;5.874;2023-03-31T08:13:19;15.38;;;14.38;;
11531;SDS011;5822;51.000;5.874;2023-03-31T08:15:45;15.95;;;14.90;;
11531;SDS011;5822;51.000;5.874;2023-03-31T08:18:10;16.27;;;15.18;;
11531;SDS011;5822;51.000;5.874;2023-03-31T08:20:36;16.42;;;15.32;;
11531;SDS011;5822;51.000;5.874;2023-03-31T08:23:03;16.13;;;15.02;;
11531;SDS011;5822;51.000;5.874;2023-03-31T08:25:33;16.27;;;15.18;;
11531;SDS011;5822;51.000;5.874;2023-03-31T08:27:58;16.90;;;15.60;;
11531;SDS011;5822;51.000;5.874;2023-03-31T08:30:24;15.80;;;14.82;;
11531;SDS011;5822;51.000;5.874;2023-03-31T08:32:50;16.40;;;15.20;;
11531;SDS011;5822;51.000;5.874;2023-03-31T08:35:15;16.40;;;15.20;;
11531;SDS011;5822;51.000;5.874;2023-03-31T08:37:41;16.17;;;15.07;;
11531;SDS011;5822;51.000;5.874;2023-03-31T08:40:07;16.50;;;15.40;;
11531;SDS011;5822;51.000;5.874;2023-03-31T08:42:42;16.48;;;15.38;;
11531;SDS011;5822;51.000;5.874;2023-03-31T08:48:09;16.70;;;15.60;;
11531;SDS011;5822;51.000;5.874;2023-03-31T08:50:51;16.77;;;15.57;;
11531;SDS011;5822;51.000;5.874;2023-03-31T08:53:32;17.30;;;16.00;;
11531;SDS011;5822;51.000;5.874;2023-03-31T08:56:08;16.10;;;15.10;;
11531;SDS011;5822;51.000;5.874;2023-03-31T08:58:41;16.58;;;15.48;;
11531;SDS011;5822;51.000;5.874;2023-03-31T09:01:56;16.60;;;15.50;;
11531;SDS011;5822;51.000;5.874;2023-03-31T09:06:54;17.90;;;16.50;;
11531;SDS011;5822;51.000;5.874;2023-03-31T09:09:52;17.33;;;16.13;;
11531;SDS011;5822;51.000;5.874;2023-03-31T09:12:45;17.00;;;15.80;;
11531;SDS011;5822;51.000;5.874;2023-03-31T09:18:14;16.90;;;15.80;;
11531;SDS011;5822;51.000;5.874;2023-03-31T09:20:49;17.50;;;16.23;;
11531;SDS011;5822;51.000;5.874;2023-03-31T09:23:37;18.48;;;17.17;;
11531;SDS011;5822;51.000;5.874;2023-03-31T09:26:07;17.58;;;16.38;;
11531;SDS011;5822;51.000;5.874;2023-03-31T09:28:53;17.33;;;16.23;;
11531;SDS011;5822;51.000;5.874;2023-03-31T09:31:21;18.17;;;16.92;;
11531;SDS011;5822;51.000;5.874;2023-03-31T09:33:47;17.87;;;16.57;;
11531;SDS011;5822;51.000;5.874;2023-03-31T09:36:17;18.08;;;16.70;;
11531;SDS011;5822;51.000;5.874;2023-03-31T09:38:46;18.20;;;16.80;;
11531;SDS011;5822;51.000;5.874;2023-03-31T09:41:13;17.95;;;16.65;;
11531;SDS011;5822;51.000;5.874;2023-03-31T09:43:40;18.05;;;16.70;;
11531;SDS011;5822;51.000;5.874;2023-03-31T09:46:29;18.60;;;17.20;;
11531;SDS011;5822;51.000;5.874;2023-03-31T09:48:59;18.20;;;16.90;;
11531;SDS011;5822;51.000;5.874;2023-03-31T09:51:31;18.40;;;17.10;;
11531;SDS011;5822;51.000;5.874;2023-03-31T09:56:54;21.02;;;19.23;;
11531;SDS011;5822;51.000;5.874;2023-03-31T09:59:21;19.83;;;18.42;;
11531;SDS011;5822;51.000;5.874;2023-03-31T10:01:59;20.60;;;19.00;;
11531;SDS011;5822;51.000;5.874;2023-03-31T10:04:32;20.70;;;19.10;;
11531;SDS011;5822;51.000;5.874;2023-03-31T10:07:00;20.08;;;18.58;;
11531;SDS011;5822;51.000;5.874;2023-03-31T10:09:29;20.08;;;18.60;;
11531;SDS011;5822;51.000;5.874;2023-03-31T10:12:01;20.70;;;19.10;;
11531;SDS011;5822;51.000;5.874;2023-03-31T10:17:11;20.30;;;18.80;;
11531;SDS011;5822;51.000;5.874;2023-03-31T10:19:46;20.48;;;18.98;;
11531;SDS011;5822;51.000;5.874;2023-03-31T10:24:45;20.42;;;19.02;;
11531;SDS011;5822;51.000;5.874;2023-03-31T10:27:18;20.73;;;19.23;;
11531;SDS011;5822;51.000;5.874;2023-03-31T10:29:56;19.83;;;18.43;;
11531;SDS011;5822;51.000;5.874;2023-03-31T10:32:41;19.80;;;18.50;;
11531;SDS011;5822;51.000;5.874;2023-03-31T10:37:47;19.45;;;18.08;;
11531;SDS011;5822;51.000;5.874;2023-03-31T10:40:17;19.53;;;18.17;;
11531;SDS011;5822;51.000;5.874;2023-03-31T10:42:46;21.70;;;20.20;;
11531;SDS011;5822;51.000;5.874;2023-03-31T10:47:54;19.30;;;18.00;;
11531;SDS011;5822;51.000;5.874;2023-03-31T10:50:31;18.27;;;17.08;;
11531;SDS011;5822;51.000;5.874;2023-03-31T10:53:03;21.27;;;19.98;;
11531;SDS011;5822;51.000;5.874;2023-03-31T10:55:35;20.13;;;18.90;;
11531;SDS011;5822;51.000;5.874;2023-03-31T11:06:54;18.63;;;17.45;;
11531;SDS011;5822;51.000;5.874;2023-03-31T11:09:36;17.73;;;16.65;;
11531;SDS011;5822;51.000;5.874;2023-03-31T11:12:30;16.33;;;15.32;;
11531;SDS011;5822;51.000;5.874;2023-03-31T11:23:47;17.80;;;16.50;;
11531;SDS011;5822;51.000;5.874;2023-03-31T11:29:32;18.55;;;17.15;;
11531;SDS011;5822;51.000;5.874;2023-03-31T11:37:41;18.40;;;16.95;;
11531;SDS011;5822;51.000;5.874;2023-03-31T11:45:28;18.23;;;16.87;;
11531;SDS011;5822;51.000;5.874;2023-03-31T11:47:59;17.80;;;16.50;;
11531;SDS011;5822;51.000;5.874;2023-03-31T11:50:29;18.00;;;16.70;;
11531;SDS011;5822;51.000;5.874;2023-03-31T11:53:04;17.42;;;16.27;;
11531;SDS011;5822;51.000;5.874;2023-03-31T11:55:36;17.42;;;16.15;;
11531;SDS011;5822;51.000;5.874;2023-03-31T11:58:04;17.58;;;16.38;;
11531;SDS011;5822;51.000;5.874;2023-03-31T12:00:37;17.50;;;16.30;;
11531;SDS011;5822;51.000;5.874;2023-03-31T12:03:22;17.30;;;16.10;;
11531;SDS011;5822;51.000;5.874;2023-03-31T12:05:56;16.95;;;15.77;;
11531;SDS011;5822;51.000;5.874;2023-03-31T12:08:42;17.07;;;15.97;;
11531;SDS011;5822;51.000;5.874;2023-03-31T12:16:41;16.92;;;15.75;;
11531;SDS011;5822;51.000;5.874;2023-03-31T12:19:21;17.02;;;15.82;;
11531;SDS011;5822;51.000;5.874;2023-03-31T12:21:54;17.55;;;16.25;;
11531;SDS011;5822;51.000;5.874;2023-03-31T12:24:26;16.80;;;15.70;;
11531;SDS011;5822;51.000;5.874;2023-03-31T12:29:47;16.88;;;15.68;;
11531;SDS011;5822;51.000;5.874;2023-03-31T12:32:44;16.03;;;15.03;;
11531;SDS011;5822;51.000;5.874;2023-03-31T12:35:26;15.97;;;14.97;;
11531;SDS011;5822;51.000;5.874;2023-03-31T12:38:08;16.75;;;15.60;;
11531;SDS011;5822;51.000;5.874;2023-03-31T12:43:50;16.50;;;15.40;;
11531;SDS011;5822;51.000;5.874;2023-03-31T12:49:18;17.33;;;16.13;;
11531;SDS011;5822;51.000;5.874;2023-03-31T12:54:55;17.00;;;15.80;;
11531;SDS011;5822;51.000;5.874;2023-03-31T12:57:29;16.80;;;15.70;;
11531;SDS011;5822;51.000;5.874;2023-03-31T13:00:08;17.23;;;16.08;;
11531;SDS011;5822;51.000;5.874;2023-03-31T13:02:46;17.08;;;15.98;;
11531;SDS011;5822;51.000;5.874;2023-03-31T13:08:03;16.80;;;15.70;;
11531;SDS011;5822;51.000;5.874;2023-03-31T13:10:30;16.77;;;15.68;;
11531;SDS011;5822;51.000;5.874;2023-03-31T13:13:11;16.85;;;15.75;;
11531;SDS011;5822;51.000;5.874;2023-03-31T13:15:39;16.65;;;15.55;;
11531;SDS011;5822;51.000;5.874;2023-03-31T13:18:18;16.00;;;15.10;;
11531;SDS011;5822;51.000;5.874;2023-03-31T13:20:45;16.80;;;15.70;;
11531;SDS011;5822;51.000;5.874;2023-03-31T13:23:22;16.90;;;15.80;;
11531;SDS011;5822;51.000;5.874;2023-03-31T13:33:17;18.40;;;17.30;;
11531;SDS011;5822;51.000;5.874;2023-03-31T13:38:51;17.80;;;16.70;;
11531;SDS011;5822;51.000;5.874;2023-03-31T13:41:40;17.67;;;16.67;;
11531;SDS011;5822;51.000;5.874;2023-03-31T13:50:28;16.83;;;15.73;;
11531;SDS011;5822;51.000;5.874;2023-03-31T14:00:40;21.35;;;19.65;;
11531;SDS011;5822;51.000;5.874;2023-03-31T14:03:20;21.27;;;19.58;;
11531;SDS011;5822;51.000;5.874;2023-03-31T14:06:01;20.50;;;18.90;;
11531;SDS011;5822;51.000;5.874;2023-03-31T14:08:48;19.60;;;18.10;;
11531;SDS011;5822;51.000;5.874;2023-03-31T14:11:27;23.58;;;21.88;;
11531;SDS011;5822;51.000;5.874;2023-03-31T14:14:13;18.98;;;17.50;;
11531;SDS011;5822;51.000;5.874;2023-03-31T14:21:58;22.70;;;21.10;;
11531;SDS011;5822;51.000;5.874;2023-03-31T14:24:32;20.92;;;19.52;;
11531;SDS011;5822;51.000;5.874;2023-03-31T14:27:11;20.38;;;19.08;;
11531;SDS011;5822;51.000;5.874;2023-03-31T14:36:01;21.08;;;19.77;;
11531;SDS011;5822;51.000;5.874;2023-03-31T14:38:39;22.88;;;21.48;;
11531;SDS011;5822;51.000;5.874;2023-03-31T14:41:05;20.20;;;18.90;;
11531;SDS011;5822;51.000;5.874;2023-03-31T14:43:32;22.60;;;21.20;;
11531;SDS011;5822;51.000;5.874;2023-03-31T14:46:01;24.02;;;22.63;;
11531;SDS011;5822;51.000;5.874;2023-03-31T14:48:29;20.48;;;19.17;;
11531;SDS011;5822;51.000;5.874;2023-03-31T14:50:59;22.00;;;20.70;;
11531;SDS011;5822;51.000;5.874;2023-03-31T14:53:26;20.95;;;19.75;;
11531;SDS011;5822;51.000;5.874;2023-03-31T14:59:00;21.58;;;20.20;;
11531;SDS011;5822;51.000;5.874;2023-03-31T15:01:28;19.38;;;18.27;;
11531;SDS011;5822;51.000;5.874;2023-03-31T15:03:59;16.05;;;15.05;;
11531;SDS011;5822;51.000;5.874;2023-03-31T15:06:30;16.52;;;15.52;;
11531;SDS011;5822;51.000;5.874;2023-03-31T15:08:59;15.90;;;15.00;;
11531;SDS011;5822;51.000;5.874;2023-03-31T15:11:28;14.45;;;13.65;;
11531;SDS011;5822;51.000;5.874;2023-03-31T15:13:54;15.38;;;14.40;;
11531;SDS011;5822;51.000;5.874;2023-03-31T15:19:15;15.60;;;14.65;;
11531;SDS011;5822;51.000;5.874;2023-03-31T15:21:41;15.60;;;14.80;;
11531;SDS011;5822;51.000;5.874;2023-03-31T15:24:09;14.80;;;13.90;;
11531;SDS011;5822;51.000;5.874;2023-03-31T15:26:38;14.80;;;13.90;;
11531;SDS011;5822;51.000;5.874;2023-03-31T15:29:36;15.00;;;14.10;;
11531;SDS011;5822;51.000;5.874;2023-03-31T15:32:15;15.32;;;14.32;;
11531;SDS011;5822;51.000;5.874;2023-03-31T15:34:45;14.90;;;14.00;;
11531;SDS011;5822;51.000;5.874;2023-03-31T15:37:11;14.70;;;13.80;;
11531;SDS011;5822;51.000;5.874;2023-03-31T15:39:37;14.57;;;13.77;;
11531;SDS011;5822;51.000;5.874;2023-03-31T15:42:08;15.20;;;14.30;;
11531;SDS011;5822;51.000;5.874;2023-03-31T15:47:00;15.00;;;14.10;;
11531;SDS011;5822;51.000;5.874;2023-03-31T15:49:31;14.60;;;13.80;;
11531;SDS011;5822;51.000;5.874;2023-03-31T15:51:57;15.20;;;14.20;;
11531;SDS011;5822;51.000;5.874;2023-03-31T15:54:32;14.70;;;13.90;;
11531;SDS011;5822;51.000;5.874;2023-03-31T15:57:06;14.75;;;13.85;;
11531;SDS011;5822;51.000;5.874;2023-03-31T15:59:43;14.40;;;13.60;;
11531;SDS011;5822;51.000;5.874;2023-03-31T16:02:13;14.57;;;13.77;;
11531;SDS011;5822;51.000;5.874;2023-03-31T16:04:48;15.00;;;14.20;;
11531;SDS011;5822;51.000;5.874;2023-03-31T16:07:21;15.35;;;14.45;;
11531;SDS011;5822;51.000;5.874;2023-03-31T16:09:54;15.80;;;14.80;;
11531;SDS011;5822;51.000;5.874;2023-03-31T16:12:32;16.55;;;15.55;;
11531;SDS011;5822;51.000;5.874;2023-03-31T16:15:14;16.90;;;15.90;;
11531;SDS011;5822;51.000;5.874;2023-03-31T16:17:47;16.95;;;16.02;;
11531;SDS011;5822;51.000;5.874;2023-03-31T16:20:26;17.10;;;16.00;;
11531;SDS011;5822;51.000;5.874;2023-03-31T16:22:56;17.20;;;16.10;;
11531;SDS011;5822;51.000;5.874;2023-03-31T16:25:24;16.77;;;15.77;;
11531;SDS011;5822;51.000;5.874;2023-03-31T16:27:58;17.03;;;16.03;;
11531;SDS011;5822;51.000;5.874;2023-03-31T16:33:02;17.83;;;16.73;;
11531;SDS011;5822;51.000;5.874;2023-03-31T16:35:35;19.08;;;17.88;;
11531;SDS011;5822;51.000;5.874;2023-03-31T16:38:02;16.75;;;15.75;;
11531;SDS011;5822;51.000;5.874;2023-03-31T16:40:30;16.70;;;15.70;;
11531;SDS011;5822;51.000;5.874;2023-03-31T16:45:45;16.15;;;15.25;;
11531;SDS011;5822;51.000;5.874;2023-03-31T16:48:12;16.40;;;15.40;;
11531;SDS011;5822;51.000;5.874;2023-03-31T16:50:40;17.00;;;16.00;;
11531;SDS011;5822;51.000;5.874;2023-03-31T16:53:06;16.60;;;15.60;;
11531;SDS011;5822;51.000;5.874;2023-03-31T16:55:33;19.50;;;18.30;;
11531;SDS011;5822;51.000;5.874;2023-03-31T16:57:59;18.48;;;17.45;;
11531;SDS011;5822;51.000;5.874;2023-03-31T17:00:27;18.30;;;17.20;;
11531;SDS011;5822;51.000;5.874;2023-03-31T17:02:54;17.60;;;16.52;;
11531;SDS011;5822;51.000;5.874;2023-03-31T17:05:21;16.77;;;15.68;;
11531;SDS011;5822;51.000;5.874;2023-03-31T17:07:46;16.40;;;15.40;;
11531;SDS011;5822;51.000;5.874;2023-03-31T17:10:12;16.70;;;15.70;;
11531;SDS011;5822;51.000;5.874;2023-03-31T17:12:38;16.70;;;15.70;;
11531;SDS011;5822;51.000;5.874;2023-03-31T17:15:04;16.75;;;15.70;;
11531;SDS011;5822;51.000;5.874;2023-03-31T17:17:30;16.60;;;15.60;;
11531;SDS011;5822;51.000;5.874;2023-03-31T17:19:56;16.20;;;15.20;;
11531;SDS011;5822;51.000;5.874;2023-03-31T17:22:23;16.40;;;15.40;;
11531;SDS011;5822;51.000;5.874;2023-03-31T17:24:49;15.60;;;14.70;;
11531;SDS011;5822;51.000;5.874;2023-03-31T17:27:21;16.10;;;15.10;;
11531;SDS011;5822;51.000;5.874;2023-03-31T17:29:46;15.63;;;14.73;;
11531;SDS011;5822;51.000;5.874;2023-03-31T17:32:12;15.90;;;15.00;;
11531;SDS011;5822;51.000;5.874;2023-03-31T17:34:39;16.55;;;15.55;;
11531;SDS011;5822;51.000;5.874;2023-03-31T17:37:05;17.60;;;16.50;;
11531;SDS011;5822;51.000;5.874;2023-03-31T17:39:31;17.05;;;16.15;;
11531;SDS011;5822;51.000;5.874;2023-03-31T17:41:56;15.43;;;14.52;;
11531;SDS011;5822;51.000;5.874;2023-03-31T17:44:22;15.50;;;14.60;;
11531;SDS011;5822;51.000;5.874;2023-03-31T17:46:48;16.10;;;15.10;;
11531;SDS011;5822;51.000;5.874;2023-03-31T17:49:14;15.50;;;14.60;;